Latest Weather Observations for Gold Coast Seaway

IDQ60901

Issued at 10:35 pm EST Monday 28 July 2014 (issued every 10 minutes, with the page automatically refreshed every 10 minutes)

About weather observations | Map of Brisbane area stations | Latest observations for Brisbane area | Other Formats
Station Details ID: 040764 Name: GOLD COAST SEAWAY Lat: -27.94 Lon: 153.43 Height: 2.98 m
Data from the previous 72 hours. | See also: Recent months at Gold Coast Seaway
Date/Time
EST
Tmp

°C
App
Tmp
°C
Dew
Point
°C
Rel
Hum
%
Delta-T

°C
Wind Press
QNH
hPa
Press
MSL
hPa
Rain
since
9 am
mm
Dir
 
Spd
km/h
Gust
km/h
Spd
kts
Gust
kts
28/10:30pm 14.3 12.5 10.7 79 1.9 W 11 11 6 6 1021.9 - 0.0
28/10:00pm 15.0 12.9 11.0 77 2.1 WNW 13 13 7 7 1021.9 1021.9 0.0
28/09:30pm 16.5 14.2 11.9 74 2.5 NW 15 19 8 10 1022.0 - 0.0
28/09:00pm 15.1 12.7 11.3 78 2.0 NW 15 17 8 9 1021.9 1021.9 0.0
28/08:30pm 15.9 13.0 11.1 73 2.6 NW 17 19 9 10 1021.9 - 0.0
28/08:00pm 16.5 14.5 11.6 73 2.6 NW 13 17 7 9 1021.5 1021.5 0.0
28/07:30pm 16.6 14.4 10.9 69 3.0 NW 13 17 7 9 1021.3 - 0.0
28/07:00pm 17.4 15.3 11.0 66 3.4 NNW 13 20 7 11 1021.2 1021.2 0.0
28/06:30pm 17.7 15.9 12.2 70 3.0 NNW 13 17 7 9 1020.9 - 0.0
28/06:00pm 18.9 14.0 12.4 66 3.6 NNE 30 32 16 17 1020.6 1020.6 0.0
28/05:30pm 18.9 15.8 11.7 63 4.0 N 19 30 10 16 1020.4 - 0.0
28/05:00pm 19.4 16.5 8.1 48 5.8 N 13 17 7 9 1020.1 1020.1 0.0
28/04:30pm 21.8 19.1 5.7 35 8.1 NNW 9 15 5 8 1019.8 - 0.0
28/04:00pm 22.2 18.6 5.2 33 8.4 NW 13 17 7 9 1019.7 1019.7 0.0
28/03:30pm 22.3 17.8 4.4 31 8.8 WNW 17 20 9 11 1019.8 - 0.0
28/03:00pm 22.4 17.4 4.5 31 8.8 NW 20 28 11 15 1019.9 1019.9 0.0
28/02:30pm 22.3 17.3 4.4 31 8.8 NW 20 28 11 15 1020.1 - 0.0
28/02:00pm 22.1 18.4 6.3 36 8.0 NW 15 24 8 13 1020.3 1020.3 0.0
28/01:30pm 21.9 17.2 5.3 34 8.2 WNW 19 28 10 15 1020.7 - 0.0
28/01:00pm 21.5 17.0 6.2 37 7.7 NW 19 28 10 15 1021.2 1021.2 0.0
28/12:30pm 20.8 15.9 7.1 41 7.0 NW 22 30 12 16 1021.7 - 0.0
28/12:00pm 21.4 17.0 7.6 41 7.1 NNW 20 26 11 14 1022.1 1022.1 0.0
28/11:30am 21.4 17.5 9.3 46 6.5 NNW 20 28 11 15 1022.7 - 0.0
28/11:00am 20.8 17.0 9.1 47 6.2 N 19 28 10 15 1023.0 1023.0 0.0
28/10:30am 20.3 16.9 9.2 49 5.9 NNW 17 22 9 12 1023.5 - 0.0
28/10:00am 19.7 17.2 9.6 52 5.3 NW 13 15 7 8 1023.8 1023.8 0.0
28/09:30am 18.6 16.5 9.9 57 4.6 NW 11 13 6 7 1024.0 - 0.0
28/09:00am 17.2 15.1 9.6 61 4.0 NW 11 15 6 8 1023.9 1023.9 0.0
28/08:30am 15.3 13.1 9.4 68 3.0 WNW 11 13 6 7 1023.7 - 0.0
28/08:00am 13.9 11.1 8.7 71 2.6 WNW 13 15 7 8 1023.3 1023.3 0.0
28/07:30am 13.0 10.3 8.9 76 2.1 WNW 13 15 7 8 1023.1 - 0.0
28/07:00am 11.9 9.5 8.6 80 1.6 W 11 13 6 7 1023.0 1023.0 0.0
28/06:30am 12.0 9.2 8.7 80 1.6 WNW 13 13 7 7 1022.9 - 0.0
28/06:00am 12.2 9.3 8.1 76 2.0 WNW 13 15 7 8 1022.8 1022.8 0.0
28/05:30am 12.0 9.3 7.5 74 2.2 W 11 13 6 7 1022.7 - 0.0
28/05:00am 11.8 9.4 8.5 80 1.6 W 11 15 6 8 1022.8 1022.8 0.0
28/04:30am 11.9 9.1 8.4 79 1.7 WSW 13 17 7 9 1022.6 - 0.0
28/04:00am 12.3 9.5 8.4 77 1.9 WSW 13 15 7 8 1022.6 1022.6 0.0
28/03:30am 12.1 9.3 8.4 78 1.8 WSW 13 15 7 8 1022.7 - 0.0
28/03:00am 12.2 9.4 8.7 79 1.7 WSW 13 15 7 8 1022.5 1022.5 0.0
28/02:30am 12.4 9.8 9.2 81 1.6 WSW 13 15 7 8 1022.7 - 0.0
28/02:00am 12.4 9.7 9.1 80 1.7 WSW 13 15 7 8 1022.6 1022.6 0.0
28/01:30am 12.6 10.4 9.2 80 1.7 WSW 11 15 6 8 1022.9 - 0.0
28/01:00am 12.5 10.3 9.3 81 1.6 WSW 11 13 6 7 1023.1 1023.1 0.0
28/12:30am 13.0 10.9 9.6 80 1.7 WSW 11 13 6 7 1023.3 - 0.0
28/12:00am 13.0 10.9 9.8 81 1.6 WSW 11 13 6 7 1023.2 1023.2 0.0
 
Date/Time
EST
Tmp

°C
App
Tmp
°C
Dew
Point
°C
Rel
Hum
%
Delta-T

°C
Wind Press
QNH
hPa
Press
MSL
hPa
Rain
since
9 am
mm
Dir
 
Spd
km/h
Gust
km/h
Spd
kts
Gust
kts
27/11:30pm 13.3 11.2 9.7 79 1.8 WSW 11 13 6 7 1023.5 - 0.0
27/11:00pm 13.2 11.0 9.5 78 1.9 SW 11 13 6 7 1023.6 1023.6 0.0
27/10:30pm 13.7 11.6 9.9 78 2.0 WSW 11 15 6 8 1023.7 - 0.0
27/10:00pm 13.7 11.9 9.6 76 2.1 SW 9 13 5 7 1023.6 1023.6 0.0
27/09:30pm 13.9 11.7 9.3 74 2.3 SW 11 13 6 7 1023.6 - 0.0
27/09:00pm 14.3 12.4 9.1 71 2.6 SW 9 11 5 6 1023.7 1023.7 0.0
27/08:30pm 14.6 13.1 9.2 70 2.8 SW 7 11 4 6 1023.5 - 0.0
27/08:00pm 15.0 12.3 8.9 67 3.1 SSW 13 17 7 9 1023.3 1023.3 0.0
27/07:30pm 15.3 12.6 8.8 65 3.3 S 13 17 7 9 1023.1 - 0.0
27/07:00pm 17.6 13.9 10.0 61 4.0 SE 20 24 11 13 1022.9 1022.9 0.0
27/06:30pm 17.7 14.3 10.6 63 3.8 SSE 19 24 10 13 1022.8 - 0.0
27/06:00pm 17.9 14.4 10.8 63 3.8 SSE 20 28 11 15 1022.4 1022.4 0.0
27/05:30pm 17.9 14.6 11.0 64 3.7 SSE 19 26 10 14 1022.3 - 0.0
27/05:00pm 18.3 14.3 10.4 60 4.2 SSE 22 28 12 15 1021.9 1021.9 0.0
27/04:30pm 19.1 15.3 11.2 60 4.3 SE 22 26 12 14 1021.5 - 0.0
27/04:00pm 19.7 15.8 10.7 56 4.9 SE 22 28 12 15 1021.3 1021.3 0.0
27/03:30pm 19.9 15.0 10.0 53 5.3 SE 26 28 14 15 1021.1 - 0.0
27/03:00pm 20.2 15.4 10.3 53 5.3 SE 26 30 14 16 1021.0 1021.0 0.0
27/02:30pm 20.5 15.3 10.3 52 5.5 ESE 28 30 15 16 1020.9 - 0.0
27/02:00pm 20.4 15.0 9.6 50 5.7 SE 28 32 15 17 1021.0 1021.0 0.0
27/01:30pm 20.7 15.4 9.9 50 5.8 SE 28 32 15 17 1021.0 - 0.0
27/01:00pm 20.8 14.8 8.8 46 6.3 SE 30 33 16 18 1021.1 1021.1 0.0
27/12:30pm 21.0 16.0 9.6 48 6.1 SE 26 30 14 16 1021.5 - 0.0
27/12:00pm 21.4 18.3 11.7 54 5.4 ESE 19 22 10 12 1022.0 1022.0 0.0
27/11:30am 21.4 18.1 10.9 51 5.8 SE 19 22 10 12 1022.5 - 0.0
27/11:00am 21.3 17.1 11.1 52 5.6 SSE 24 32 13 17 1023.1 1023.1 0.0
27/10:30am 21.3 19.0 11.6 54 5.4 SSE 15 19 8 10 1023.4 - 0.0
27/10:00am 20.4 18.7 11.1 55 5.1 S 11 15 6 8 1023.5 1023.5 0.0
27/09:30am 19.8 19.5 12.8 64 3.9 S 6 7 3 4 1023.6 - 0.0
27/09:00am 18.1 17.7 12.3 69 3.2 SW 6 9 3 5 1023.4 1023.4 0.8
27/08:30am 17.4 16.2 12.7 74 2.6 WNW 11 13 6 7 1023.3 - 0.8
27/08:00am 16.4 15.4 12.4 77 2.2 WNW 9 11 5 6 1023.2 1023.2 0.8
27/07:30am 14.9 14.0 12.6 86 1.3 W 9 9 5 5 1022.9 - 0.8
27/07:00am 14.2 13.1 12.1 87 1.1 WNW 9 11 5 6 1022.6 1022.6 0.8
27/06:30am 14.5 13.0 11.8 84 1.5 WNW 11 13 6 7 1022.4 - 0.8
27/06:00am 15.1 13.7 12.1 82 1.6 WNW 11 13 6 7 1022.3 1022.3 0.8
27/05:30am 15.5 14.2 12.4 82 1.7 WNW 11 17 6 9 1021.9 - 0.8
27/05:00am 15.2 14.9 13.4 89 1.0 N 7 11 4 6 1021.7 1021.7 0.8
27/04:30am 14.9 14.3 13.6 92 0.7 N 9 11 5 6 1021.5 - 0.8
27/04:00am 15.1 14.9 13.6 91 0.8 NW 7 11 4 6 1021.6 1021.6 0.8
27/03:30am 14.8 14.4 14.0 95 0.4 N 9 13 5 7 1021.7 - 0.8
27/03:00am 14.7 14.8 14.5 99 0.1 NNW 7 11 4 6 1022.0 1022.0 0.8
27/02:30am 14.6 14.9 14.4 99 0.1 NW 6 9 3 5 1022.2 - 0.8
27/02:00am 13.9 15.0 13.4 97 0.3 CALM 0 0 0 0 1022.0 1022.0 0.8
27/01:30am 14.1 15.0 12.8 92 0.7 CALM 0 4 0 2 1022.2 - 0.8
27/01:00am 15.3 15.0 14.3 94 0.6 NW 9 13 5 7 1022.3 1022.3 0.8
27/12:30am 14.9 14.6 13.3 90 0.9 W 7 9 4 5 1022.6 - 0.8
27/12:00am 15.7 16.4 13.5 87 1.2 WNW 2 6 1 3 1022.8 1022.8 0.8
 
Date/Time
EST
Tmp

°C
App
Tmp
°C
Dew
Point
°C
Rel
Hum
%
Delta-T

°C
Wind Press
QNH
hPa
Press
MSL
hPa
Rain
since
9 am
mm
Dir
 
Spd
km/h
Gust
km/h
Spd
kts
Gust
kts
26/11:30pm 16.5 16.6 14.5 88 1.1 WNW 7 9 4 5 1023.1 - 0.8
26/11:00pm 16.9 16.0 14.9 88 1.2 NW 13 17 7 9 1023.4 1023.4 0.8
26/10:30pm 17.1 15.5 15.1 88 1.2 WNW 17 20 9 11 1023.5 - 0.8
26/10:00pm 16.9 16.2 15.4 91 0.9 WNW 13 17 7 9 1023.6 1023.6 0.6
26/09:30pm 16.9 17.8 15.2 90 1.0 NW 4 11 2 6 1023.5 - 0.6
26/09:00pm 17.0 17.0 15.2 89 1.0 W 9 13 5 7 1024.1 1024.1 0.6
26/08:30pm 17.2 16.1 15.2 88 1.2 NW 15 17 8 9 1024.2 - 0.6
26/08:00pm 16.9 17.0 15.4 91 0.9 WNW 9 13 5 7 1023.9 1023.9 0.6
26/07:30pm 17.0 16.6 15.2 89 1.0 W 11 15 6 8 1024.1 - 0.6
26/07:00pm 17.2 14.8 15.5 90 1.0 NW 22 26 12 14 1024.0 1024.0 0.6
26/06:30pm 17.5 16.5 15.7 89 1.1 N 15 20 8 11 1023.6 - 0.6
26/06:00pm 17.6 16.6 15.6 88 1.2 N 15 20 8 11 1023.3 1023.3 0.6
26/05:30pm 18.7 16.6 14.8 78 2.3 NW 19 26 10 14 1023.7 - 0.2
26/05:00pm 19.6 18.5 14.4 72 3.0 NNW 13 19 7 10 1023.2 1023.2 0.0
26/04:30pm 20.0 18.9 14.4 70 3.3 N 13 19 7 10 1022.9 - 0.0
26/04:00pm 20.6 18.8 14.5 68 3.5 N 17 24 9 13 1023.2 1023.2 0.0
26/03:30pm 21.3 20.0 14.9 67 3.8 N 15 19 8 10 1023.0 - 0.0
26/03:00pm 21.0 19.5 14.2 65 3.9 N 15 19 8 10 1023.0 1023.0 0.0
26/02:30pm 21.0 19.4 14.9 68 3.6 N 17 19 9 10 1023.1 - 0.0
26/02:00pm 21.6 19.5 13.5 60 4.6 N 17 20 9 11 1023.1 1023.1 0.0
26/01:30pm 21.7 20.1 13.9 61 4.5 N 15 22 8 12 1023.5 - 0.0
26/01:00pm 21.7 20.5 13.9 61 4.5 N 13 17 7 9 1023.9 1023.9 0.0
26/12:30pm 21.7 20.4 14.8 65 4.1 N 15 17 8 9 1024.0 - 0.0
26/12:00pm 20.9 20.2 14.3 66 3.8 N 11 15 6 8 1024.9 1024.9 0.0
26/11:30am 20.8 20.0 14.0 65 3.9 NW 11 13 6 7 1025.6 - 0.0
26/11:00am 20.6 20.0 14.5 68 3.5 NW 11 15 6 8 1025.9 1025.9 0.0
26/10:30am 20.0 19.4 14.6 71 3.1 NW 11 13 6 7 1026.3 - 0.0
26/10:00am 18.8 18.0 15.1 79 2.2 NW 13 15 7 8 1026.9 1026.9 0.0
26/09:30am 18.4 18.3 14.9 80 2.0 WNW 9 11 5 6 1027.3 - 0.0
26/09:00am 18.3 17.7 14.6 79 2.1 NW 11 13 6 7 1027.1 1027.1 0.0
26/08:30am 16.8 15.7 14.3 85 1.4 NW 13 15 7 8 1027.0 - 0.0
26/08:00am 17.0 16.2 15.0 88 1.2 NW 13 15 7 8 1026.7 1026.7 0.0
26/07:30am 16.6 16.2 15.1 91 0.9 NW 11 13 6 7 1026.3 - 0.0
26/07:00am 16.0 15.5 14.9 93 0.6 NW 11 11 6 6 1026.5 1026.5 0.0
26/06:30am 15.6 14.9 14.3 92 0.7 NW 11 13 6 7 1026.5 - 0.0
26/06:00am 15.3 14.3 14.5 95 0.5 NW 13 15 7 8 1026.0 1026.0 0.0
26/05:30am 15.1 14.4 14.3 95 0.5 NW 11 13 6 7 1025.7 - 0.0
26/05:00am 15.0 13.8 14.0 94 0.6 NW 13 13 7 7 1025.6 1025.6 0.0
26/04:30am 15.3 14.2 14.2 93 0.6 NW 13 15 7 8 1025.3 - 0.0
26/04:00am 15.3 14.2 14.3 94 0.6 NW 13 13 7 7 1025.0 1025.0 0.0
26/03:30am 15.3 14.2 14.2 93 0.6 WNW 13 15 7 8 1025.3 - 0.0
26/03:00am 15.4 14.3 14.3 93 0.6 WNW 13 13 7 7 1025.3 1025.3 0.0
26/02:30am 15.6 14.6 14.5 93 0.6 WNW 13 13 7 7 1025.5 - 0.0
26/02:00am 15.8 14.8 14.7 93 0.6 WNW 13 13 7 7 1025.8 1025.8 0.0
26/01:30am 16.0 15.0 14.7 92 0.7 WNW 13 13 7 7 1026.0 - 0.0
26/01:00am 16.4 16.0 15.3 93 0.6 WNW 11 13 6 7 1026.0 1026.0 0.0
26/12:30am 15.8 15.3 15.0 95 0.5 WNW 11 11 6 6 1026.2 - 0.0
26/12:00am 14.9 14.5 13.1 89 1.0 WNW 7 9 4 5 1026.5 1026.5 0.0
 
Date/Time
EST
Tmp

°C
App
Tmp
°C
Dew
Point
°C
Rel
Hum
%
Delta-T

°C
Wind Press
QNH
hPa
Press
MSL
hPa
Rain
since
9 am
mm
Dir
 
Spd
km/h
Gust
km/h
Spd
kts
Gust
kts
25/11:30pm 15.1 14.9 13.1 88 1.1 WNW 6 7 3 4 1026.5 - 0.0
25/11:00pm 16.1 16.0 13.8 86 1.3 WNW 7 9 4 5 1026.7 1026.7 0.0

Latest Capital City Observations: Canberra | Sydney | Melbourne | Brisbane | Adelaide | Perth | Hobart | Darwin

Other Formats:

Comma delimited format used in spreadsheet applications
http://www.bom.gov.au/fwo/IDQ60901/IDQ60901.94580.axf

JavaScript Object Notation format (JSON) in row-major order
http://www.bom.gov.au/fwo/IDQ60901/IDQ60901.94580.json